sensor_id;sensor_type;location;lat;lon;timestamp;P1;durP1;ratioP1;P2;durP2;ratioP2
6979;SDS011;3530;52.832;10.680;2022-07-23T00:00:10;4.30;;;3.90;;
6979;SDS011;3530;52.832;10.680;2022-07-23T00:02:36;4.72;;;4.32;;
6979;SDS011;3530;52.832;10.680;2022-07-23T00:05:01;4.13;;;3.80;;
6979;SDS011;3530;52.832;10.680;2022-07-23T00:07:27;5.13;;;4.63;;
6979;SDS011;3530;52.832;10.680;2022-07-23T00:09:52;4.32;;;3.92;;
6979;SDS011;3530;52.832;10.680;2022-07-23T00:12:18;5.70;;;4.13;;
6979;SDS011;3530;52.832;10.680;2022-07-23T00:14:43;5.97;;;3.63;;
6979;SDS011;3530;52.832;10.680;2022-07-23T00:17:08;4.60;;;3.72;;
6979;SDS011;3530;52.832;10.680;2022-07-23T00:19:34;4.65;;;4.25;;
6979;SDS011;3530;52.832;10.680;2022-07-23T00:21:59;4.53;;;4.13;;
6979;SDS011;3530;52.832;10.680;2022-07-23T00:24:24;4.53;;;4.13;;
6979;SDS011;3530;52.832;10.680;2022-07-23T00:26:50;4.68;;;3.83;;
6979;SDS011;3530;52.832;10.680;2022-07-23T00:29:15;5.95;;;3.72;;
6979;SDS011;3530;52.832;10.680;2022-07-23T00:31:41;4.80;;;4.20;;
6979;SDS011;3530;52.832;10.680;2022-07-23T00:34:06;4.60;;;4.18;;
6979;SDS011;3530;52.832;10.680;2022-07-23T00:36:31;4.95;;;4.30;;
6979;SDS011;3530;52.832;10.680;2022-07-23T00:38:57;4.70;;;3.85;;
6979;SDS011;3530;52.832;10.680;2022-07-23T00:41:22;4.55;;;4.15;;
6979;SDS011;3530;52.832;10.680;2022-07-23T00:43:48;4.03;;;3.72;;
6979;SDS011;3530;52.832;10.680;2022-07-23T00:46:18;5.10;;;4.50;;
6979;SDS011;3530;52.832;10.680;2022-07-23T00:48:47;4.93;;;4.03;;
6979;SDS011;3530;52.832;10.680;2022-07-23T00:51:12;4.65;;;4.25;;
6979;SDS011;3530;52.832;10.680;2022-07-23T00:53:37;4.53;;;3.83;;
6979;SDS011;3530;52.832;10.680;2022-07-23T00:56:03;5.90;;;5.07;;
6979;SDS011;3530;52.832;10.680;2022-07-23T00:58:28;6.30;;;4.43;;
6979;SDS011;3530;52.832;10.680;2022-07-23T01:00:54;7.40;;;4.60;;
6979;SDS011;3530;52.832;10.680;2022-07-23T01:03:19;5.28;;;4.25;;
6979;SDS011;3530;52.832;10.680;2022-07-23T01:05:45;4.70;;;4.30;;
6979;SDS011;3530;52.832;10.680;2022-07-23T01:08:10;4.78;;;4.00;;
6979;SDS011;3530;52.832;10.680;2022-07-23T01:10:36;6.50;;;4.28;;
6979;SDS011;3530;52.832;10.680;2022-07-23T01:13:02;4.65;;;4.20;;
6979;SDS011;3530;52.832;10.680;2022-07-23T01:15:29;6.88;;;4.38;;
6979;SDS011;3530;52.832;10.680;2022-07-23T01:17:55;6.05;;;4.82;;
6979;SDS011;3530;52.832;10.680;2022-07-23T01:20:21;6.30;;;4.50;;
6979;SDS011;3530;52.832;10.680;2022-07-23T01:22:47;7.03;;;5.28;;
6979;SDS011;3530;52.832;10.680;2022-07-23T01:25:12;5.63;;;4.22;;
6979;SDS011;3530;52.832;10.680;2022-07-23T01:27:38;4.40;;;4.00;;
6979;SDS011;3530;52.832;10.680;2022-07-23T01:30:03;5.85;;;4.47;;
6979;SDS011;3530;52.832;10.680;2022-07-23T01:32:29;4.40;;;3.97;;
6979;SDS011;3530;52.832;10.680;2022-07-23T01:34:55;4.32;;;3.92;;
6979;SDS011;3530;52.832;10.680;2022-07-23T01:37:20;5.13;;;4.50;;
6979;SDS011;3530;52.832;10.680;2022-07-23T01:39:45;5.20;;;4.53;;
6979;SDS011;3530;52.832;10.680;2022-07-23T01:42:11;5.22;;;4.72;;
6979;SDS011;3530;52.832;10.680;2022-07-23T01:44:36;4.30;;;4.00;;
6979;SDS011;3530;52.832;10.680;2022-07-23T01:47:01;4.40;;;4.05;;
6979;SDS011;3530;52.832;10.680;2022-07-23T01:49:27;4.18;;;3.88;;
6979;SDS011;3530;52.832;10.680;2022-07-23T01:51:52;5.43;;;4.95;;
6979;SDS011;3530;52.832;10.680;2022-07-23T01:54:31;4.68;;;4.18;;
6979;SDS011;3530;52.832;10.680;2022-07-23T01:56:58;4.95;;;4.40;;
6979;SDS011;3530;52.832;10.680;2022-07-23T01:59:23;6.90;;;4.22;;
6979;SDS011;3530;52.832;10.680;2022-07-23T02:01:49;4.95;;;4.45;;
6979;SDS011;3530;52.832;10.680;2022-07-23T02:04:18;5.00;;;4.32;;
6979;SDS011;3530;52.832;10.680;2022-07-23T02:06:44;5.78;;;4.80;;
6979;SDS011;3530;52.832;10.680;2022-07-23T02:09:10;7.25;;;5.03;;
6979;SDS011;3530;52.832;10.680;2022-07-23T02:11:35;5.85;;;4.45;;
6979;SDS011;3530;52.832;10.680;2022-07-23T02:14:01;6.07;;;5.55;;
6979;SDS011;3530;52.832;10.680;2022-07-23T02:16:26;5.53;;;5.00;;
6979;SDS011;3530;52.832;10.680;2022-07-23T02:18:51;4.60;;;4.20;;
6979;SDS011;3530;52.832;10.680;2022-07-23T02:21:17;4.90;;;4.50;;
6979;SDS011;3530;52.832;10.680;2022-07-23T02:23:42;5.30;;;4.25;;
6979;SDS011;3530;52.832;10.680;2022-07-23T02:26:08;6.40;;;4.57;;
6979;SDS011;3530;52.832;10.680;2022-07-23T02:28:33;5.43;;;4.85;;
6979;SDS011;3530;52.832;10.680;2022-07-23T02:30:58;5.10;;;4.70;;
6979;SDS011;3530;52.832;10.680;2022-07-23T02:33:24;5.38;;;4.97;;
6979;SDS011;3530;52.832;10.680;2022-07-23T02:35:50;5.20;;;4.75;;
6979;SDS011;3530;52.832;10.680;2022-07-23T02:38:15;6.80;;;4.60;;
6979;SDS011;3530;52.832;10.680;2022-07-23T02:40:41;5.20;;;4.78;;
6979;SDS011;3530;52.832;10.680;2022-07-23T02:43:06;6.18;;;4.55;;
6979;SDS011;3530;52.832;10.680;2022-07-23T02:45:31;5.32;;;4.90;;
6979;SDS011;3530;52.832;10.680;2022-07-23T02:47:57;7.05;;;4.60;;
6979;SDS011;3530;52.832;10.680;2022-07-23T02:50:22;5.68;;;5.07;;
6979;SDS011;3530;52.832;10.680;2022-07-23T02:52:48;4.65;;;4.30;;
6979;SDS011;3530;52.832;10.680;2022-07-23T02:55:13;5.18;;;4.60;;
6979;SDS011;3530;52.832;10.680;2022-07-23T02:57:39;5.90;;;5.00;;
6979;SDS011;3530;52.832;10.680;2022-07-23T03:00:04;4.70;;;4.22;;
6979;SDS011;3530;52.832;10.680;2022-07-23T03:02:31;6.13;;;4.43;;
6979;SDS011;3530;52.832;10.680;2022-07-23T03:04:56;5.00;;;4.50;;
6979;SDS011;3530;52.832;10.680;2022-07-23T03:07:22;4.97;;;4.55;;
6979;SDS011;3530;52.832;10.680;2022-07-23T03:09:47;5.05;;;4.55;;
6979;SDS011;3530;52.832;10.680;2022-07-23T03:12:13;6.18;;;5.05;;
6979;SDS011;3530;52.832;10.680;2022-07-23T03:14:38;4.97;;;4.57;;
6979;SDS011;3530;52.832;10.680;2022-07-23T03:17:03;5.05;;;4.55;;
6979;SDS011;3530;52.832;10.680;2022-07-23T03:19:29;7.75;;;5.20;;
6979;SDS011;3530;52.832;10.680;2022-07-23T03:21:54;5.25;;;4.40;;
6979;SDS011;3530;52.832;10.680;2022-07-23T03:24:20;6.25;;;4.50;;
6979;SDS011;3530;52.832;10.680;2022-07-23T03:26:45;5.30;;;4.38;;
6979;SDS011;3530;52.832;10.680;2022-07-23T03:29:10;5.72;;;4.82;;
6979;SDS011;3530;52.832;10.680;2022-07-23T03:31:36;4.55;;;4.25;;
6979;SDS011;3530;52.832;10.680;2022-07-23T03:34:03;4.60;;;4.30;;
6979;SDS011;3530;52.832;10.680;2022-07-23T03:36:28;4.07;;;3.70;;
6979;SDS011;3530;52.832;10.680;2022-07-23T03:38:53;4.63;;;4.32;;
6979;SDS011;3530;52.832;10.680;2022-07-23T03:41:19;5.00;;;4.50;;
6979;SDS011;3530;52.832;10.680;2022-07-23T03:43:44;5.10;;;4.70;;
6979;SDS011;3530;52.832;10.680;2022-07-23T03:46:10;4.97;;;4.40;;
6979;SDS011;3530;52.832;10.680;2022-07-23T03:48:36;6.00;;;4.72;;
6979;SDS011;3530;52.832;10.680;2022-07-23T03:51:02;5.72;;;4.65;;
6979;SDS011;3530;52.832;10.680;2022-07-23T03:53:27;6.38;;;4.53;;
6979;SDS011;3530;52.832;10.680;2022-07-23T03:55:53;6.82;;;4.60;;
6979;SDS011;3530;52.832;10.680;2022-07-23T03:58:18;6.40;;;4.72;;
6979;SDS011;3530;52.832;10.680;2022-07-23T04:00:44;7.00;;;4.68;;
6979;SDS011;3530;52.832;10.680;2022-07-23T04:03:09;4.65;;;4.25;;
6979;SDS011;3530;52.832;10.680;2022-07-23T04:05:34;6.90;;;4.63;;
6979;SDS011;3530;52.832;10.680;2022-07-23T04:08:00;5.22;;;4.82;;
6979;SDS011;3530;52.832;10.680;2022-07-23T04:10:25;6.70;;;4.57;;
6979;SDS011;3530;52.832;10.680;2022-07-23T04:12:50;6.03;;;4.55;;
6979;SDS011;3530;52.832;10.680;2022-07-23T04:15:16;6.05;;;4.72;;
6979;SDS011;3530;52.832;10.680;2022-07-23T04:17:41;5.03;;;4.40;;
6979;SDS011;3530;52.832;10.680;2022-07-23T04:20:08;6.32;;;4.07;;
6979;SDS011;3530;52.832;10.680;2022-07-23T04:22:34;6.18;;;4.65;;
6979;SDS011;3530;52.832;10.680;2022-07-23T04:25:00;5.30;;;4.65;;
6979;SDS011;3530;52.832;10.680;2022-07-23T04:27:26;4.63;;;4.22;;
6979;SDS011;3530;52.832;10.680;2022-07-23T04:29:51;4.90;;;4.50;;
6979;SDS011;3530;52.832;10.680;2022-07-23T04:32:16;4.97;;;4.50;;
6979;SDS011;3530;52.832;10.680;2022-07-23T04:34:42;5.30;;;4.60;;
6979;SDS011;3530;52.832;10.680;2022-07-23T04:37:07;6.63;;;4.50;;
6979;SDS011;3530;52.832;10.680;2022-07-23T04:39:32;4.07;;;3.75;;
6979;SDS011;3530;52.832;10.680;2022-07-23T04:41:58;5.13;;;4.65;;
6979;SDS011;3530;52.832;10.680;2022-07-23T04:44:23;5.03;;;4.45;;
6979;SDS011;3530;52.832;10.680;2022-07-23T04:46:49;5.75;;;5.15;;
6979;SDS011;3530;52.832;10.680;2022-07-23T04:49:14;5.00;;;4.55;;
6979;SDS011;3530;52.832;10.680;2022-07-23T04:51:39;3.10;;;2.90;;
6979;SDS011;3530;52.832;10.680;2022-07-23T04:54:05;3.30;;;3.10;;
6979;SDS011;3530;52.832;10.680;2022-07-23T04:56:30;3.47;;;3.28;;
6979;SDS011;3530;52.832;10.680;2022-07-23T04:58:55;3.90;;;3.60;;
6979;SDS011;3530;52.832;10.680;2022-07-23T05:01:21;4.20;;;3.70;;
6979;SDS011;3530;52.832;10.680;2022-07-23T05:03:46;4.72;;;4.32;;
6979;SDS011;3530;52.832;10.680;2022-07-23T05:06:13;5.40;;;4.35;;
6979;SDS011;3530;52.832;10.680;2022-07-23T05:08:38;4.85;;;4.45;;
6979;SDS011;3530;52.832;10.680;2022-07-23T05:11:04;4.40;;;4.00;;
6979;SDS011;3530;52.832;10.680;2022-07-23T05:13:29;7.20;;;4.28;;
6979;SDS011;3530;52.832;10.680;2022-07-23T05:15:55;6.40;;;4.47;;
6979;SDS011;3530;52.832;10.680;2022-07-23T05:18:21;4.78;;;4.28;;
6979;SDS011;3530;52.832;10.680;2022-07-23T05:20:46;5.22;;;4.65;;
6979;SDS011;3530;52.832;10.680;2022-07-23T05:23:11;4.10;;;3.65;;
6979;SDS011;3530;52.832;10.680;2022-07-23T05:25:37;7.15;;;4.50;;
6979;SDS011;3530;52.832;10.680;2022-07-23T05:28:02;6.63;;;4.55;;
6979;SDS011;3530;52.832;10.680;2022-07-23T05:30:28;5.50;;;4.60;;
6979;SDS011;3530;52.832;10.680;2022-07-23T05:32:53;5.78;;;4.50;;
6979;SDS011;3530;52.832;10.680;2022-07-23T05:35:18;6.22;;;5.10;;
6979;SDS011;3530;52.832;10.680;2022-07-23T05:37:44;5.20;;;4.78;;
6979;SDS011;3530;52.832;10.680;2022-07-23T05:40:09;4.75;;;4.22;;
6979;SDS011;3530;52.832;10.680;2022-07-23T05:42:36;4.07;;;3.78;;
6979;SDS011;3530;52.832;10.680;2022-07-23T05:45:02;5.68;;;3.70;;
6979;SDS011;3530;52.832;10.680;2022-07-23T05:47:28;4.35;;;3.50;;
6979;SDS011;3530;52.832;10.680;2022-07-23T05:49:54;5.35;;;3.38;;
6979;SDS011;3530;52.832;10.680;2022-07-23T05:52:19;3.50;;;3.20;;
6979;SDS011;3530;52.832;10.680;2022-07-23T05:54:44;4.50;;;2.90;;
6979;SDS011;3530;52.832;10.680;2022-07-23T05:57:10;4.10;;;3.40;;
6979;SDS011;3530;52.832;10.680;2022-07-23T05:59:35;4.13;;;3.60;;
6979;SDS011;3530;52.832;10.680;2022-07-23T06:02:01;4.28;;;3.88;;
6979;SDS011;3530;52.832;10.680;2022-07-23T06:04:26;4.78;;;3.80;;
6979;SDS011;3530;52.832;10.680;2022-07-23T06:06:51;3.95;;;3.25;;
6979;SDS011;3530;52.832;10.680;2022-07-23T06:09:17;3.75;;;3.45;;
6979;SDS011;3530;52.832;10.680;2022-07-23T06:11:43;4.38;;;3.38;;
6979;SDS011;3530;52.832;10.680;2022-07-23T06:14:08;4.50;;;3.78;;
6979;SDS011;3530;52.832;10.680;2022-07-23T06:16:34;3.53;;;3.30;;
6979;SDS011;3530;52.832;10.680;2022-07-23T06:18:59;5.78;;;3.78;;
6979;SDS011;3530;52.832;10.680;2022-07-23T06:21:24;3.80;;;3.50;;
6979;SDS011;3530;52.832;10.680;2022-07-23T06:23:50;5.10;;;3.75;;
6979;SDS011;3530;52.832;10.680;2022-07-23T06:26:15;3.45;;;3.20;;
6979;SDS011;3530;52.832;10.680;2022-07-23T06:28:40;4.30;;;3.10;;
6979;SDS011;3530;52.832;10.680;2022-07-23T06:31:06;3.75;;;2.85;;
6979;SDS011;3530;52.832;10.680;2022-07-23T06:33:31;3.40;;;3.10;;
6979;SDS011;3530;52.832;10.680;2022-07-23T06:35:56;3.28;;;3.03;;
6979;SDS011;3530;52.832;10.680;2022-07-23T06:38:22;4.05;;;3.30;;
6979;SDS011;3530;52.832;10.680;2022-07-23T06:40:47;4.72;;;3.17;;
6979;SDS011;3530;52.832;10.680;2022-07-23T06:43:12;2.97;;;2.10;;
6979;SDS011;3530;52.832;10.680;2022-07-23T06:45:38;1.52;;;1.52;;
6979;SDS011;3530;52.832;10.680;2022-07-23T06:48:03;2.17;;;2.08;;
6979;SDS011;3530;52.832;10.680;2022-07-23T06:50:29;2.03;;;1.50;;
6979;SDS011;3530;52.832;10.680;2022-07-23T06:52:54;1.42;;;1.27;;
6979;SDS011;3530;52.832;10.680;2022-07-23T06:55:20;2.97;;;2.20;;
6979;SDS011;3530;52.832;10.680;2022-07-23T06:57:45;1.40;;;1.40;;
6979;SDS011;3530;52.832;10.680;2022-07-23T07:00:11;1.75;;;1.70;;
6979;SDS011;3530;52.832;10.680;2022-07-23T07:02:36;3.60;;;1.65;;
6979;SDS011;3530;52.832;10.680;2022-07-23T07:05:02;2.75;;;2.25;;
6979;SDS011;3530;52.832;10.680;2022-07-23T07:07:27;1.92;;;1.85;;
6979;SDS011;3530;52.832;10.680;2022-07-23T07:09:53;4.05;;;2.00;;
6979;SDS011;3530;52.832;10.680;2022-07-23T07:12:18;1.67;;;1.58;;
6979;SDS011;3530;52.832;10.680;2022-07-23T07:14:44;1.67;;;1.60;;
6979;SDS011;3530;52.832;10.680;2022-07-23T07:17:09;1.77;;;1.67;;
6979;SDS011;3530;52.832;10.680;2022-07-23T07:19:35;2.08;;;1.63;;
6979;SDS011;3530;52.832;10.680;2022-07-23T07:22:01;1.52;;;1.50;;
6979;SDS011;3530;52.832;10.680;2022-07-23T07:24:27;2.47;;;1.98;;
6979;SDS011;3530;52.832;10.680;2022-07-23T07:26:52;1.95;;;1.85;;
6979;SDS011;3530;52.832;10.680;2022-07-23T07:29:17;2.03;;;1.92;;
6979;SDS011;3530;52.832;10.680;2022-07-23T07:31:43;4.97;;;2.67;;
6979;SDS011;3530;52.832;10.680;2022-07-23T07:34:08;2.28;;;2.17;;
6979;SDS011;3530;52.832;10.680;2022-07-23T07:36:33;2.10;;;2.00;;
6979;SDS011;3530;52.832;10.680;2022-07-23T07:39:02;5.45;;;2.33;;
6979;SDS011;3530;52.832;10.680;2022-07-23T07:41:28;3.03;;;2.00;;
6979;SDS011;3530;52.832;10.680;2022-07-23T07:43:53;3.08;;;2.03;;
6979;SDS011;3530;52.832;10.680;2022-07-23T07:46:18;3.40;;;2.20;;
6979;SDS011;3530;52.832;10.680;2022-07-23T07:48:44;1.98;;;1.80;;
6979;SDS011;3530;52.832;10.680;2022-07-23T07:51:09;1.90;;;1.80;;
6979;SDS011;3530;52.832;10.680;2022-07-23T07:53:35;2.00;;;1.80;;
6979;SDS011;3530;52.832;10.680;2022-07-23T07:56:00;2.15;;;2.03;;
6979;SDS011;3530;52.832;10.680;2022-07-23T07:58:25;1.63;;;1.63;;
6979;SDS011;3530;52.832;10.680;2022-07-23T08:00:51;2.20;;;1.90;;
6979;SDS011;3530;52.832;10.680;2022-07-23T08:03:16;2.00;;;1.80;;
6979;SDS011;3530;52.832;10.680;2022-07-23T08:05:42;1.83;;;1.33;;
6979;SDS011;3530;52.832;10.680;2022-07-23T08:08:08;2.75;;;1.90;;
6979;SDS011;3530;52.832;10.680;2022-07-23T08:10:34;6.22;;;1.92;;
6979;SDS011;3530;52.832;10.680;2022-07-23T08:13:00;1.63;;;1.52;;
6979;SDS011;3530;52.832;10.680;2022-07-23T08:15:26;2.08;;;1.98;;
6979;SDS011;3530;52.832;10.680;2022-07-23T08:17:52;2.05;;;1.90;;
6979;SDS011;3530;52.832;10.680;2022-07-23T08:20:19;2.58;;;1.80;;
6979;SDS011;3530;52.832;10.680;2022-07-23T08:22:47;2.40;;;1.60;;
6979;SDS011;3530;52.832;10.680;2022-07-23T08:25:17;1.45;;;1.42;;
6979;SDS011;3530;52.832;10.680;2022-07-23T08:27:46;1.80;;;1.70;;
6979;SDS011;3530;52.832;10.680;2022-07-23T08:30:12;1.58;;;1.50;;
6979;SDS011;3530;52.832;10.680;2022-07-23T08:32:54;3.35;;;1.48;;
6979;SDS011;3530;52.832;10.680;2022-07-23T08:37:58;1.30;;;1.30;;
6979;SDS011;3530;52.832;10.680;2022-07-23T08:40:28;2.78;;;1.67;;
6979;SDS011;3530;52.832;10.680;2022-07-23T08:42:54;2.10;;;1.67;;
6979;SDS011;3530;52.832;10.680;2022-07-23T08:45:20;1.60;;;1.50;;
6979;SDS011;3530;52.832;10.680;2022-07-23T08:47:50;1.15;;;1.15;;
6979;SDS011;3530;52.832;10.680;2022-07-23T08:50:17;1.85;;;1.63;;
6979;SDS011;3530;52.832;10.680;2022-07-23T08:52:42;2.83;;;1.92;;
6979;SDS011;3530;52.832;10.680;2022-07-23T08:55:08;2.20;;;2.05;;
6979;SDS011;3530;52.832;10.680;2022-07-23T08:57:34;1.63;;;1.52;;
6979;SDS011;3530;52.832;10.680;2022-07-23T08:59:59;2.03;;;1.90;;
6979;SDS011;3530;52.832;10.680;2022-07-23T09:02:25;3.17;;;1.45;;
6979;SDS011;3530;52.832;10.680;2022-07-23T09:04:50;1.67;;;1.67;;
6979;SDS011;3530;52.832;10.680;2022-07-23T09:07:16;2.30;;;2.10;;
6979;SDS011;3530;52.832;10.680;2022-07-23T09:09:41;1.70;;;1.60;;
6979;SDS011;3530;52.832;10.680;2022-07-23T09:12:07;2.38;;;1.58;;
6979;SDS011;3530;52.832;10.680;2022-07-23T09:14:37;1.60;;;1.50;;
6979;SDS011;3530;52.832;10.680;2022-07-23T09:17:14;2.22;;;1.70;;
6979;SDS011;3530;52.832;10.680;2022-07-23T09:19:41;1.60;;;1.50;;
6979;SDS011;3530;52.832;10.680;2022-07-23T09:22:22;1.85;;;1.40;;
6979;SDS011;3530;52.832;10.680;2022-07-23T09:30:24;2.40;;;1.42;;
6979;SDS011;3530;52.832;10.680;2022-07-23T09:33:10;1.52;;;1.40;;
6979;SDS011;3530;52.832;10.680;2022-07-23T09:36:10;2.50;;;1.55;;
6979;SDS011;3530;52.832;10.680;2022-07-23T09:38:28;1.60;;;1.50;;
6979;SDS011;3530;52.832;10.680;2022-07-23T09:41:07;1.77;;;1.60;;
6979;SDS011;3530;52.832;10.680;2022-07-23T09:43:33;2.75;;;1.48;;
6979;SDS011;3530;52.832;10.680;2022-07-23T09:48:49;1.98;;;1.35;;
6979;SDS011;3530;52.832;10.680;2022-07-23T09:51:18;1.50;;;1.50;;
6979;SDS011;3530;52.832;10.680;2022-07-23T09:53:58;3.63;;;1.55;;
6979;SDS011;3530;52.832;10.680;2022-07-23T09:56:23;1.50;;;1.27;;
6979;SDS011;3530;52.832;10.680;2022-07-23T09:58:50;1.13;;;1.13;;
6979;SDS011;3530;52.832;10.680;2022-07-23T10:01:17;2.30;;;1.13;;
6979;SDS011;3530;52.832;10.680;2022-07-23T10:03:42;1.42;;;1.33;;
6979;SDS011;3530;52.832;10.680;2022-07-23T10:06:10;2.55;;;1.35;;
6979;SDS011;3530;52.832;10.680;2022-07-23T10:08:39;1.67;;;1.58;;
6979;SDS011;3530;52.832;10.680;2022-07-23T10:11:06;1.67;;;1.40;;
6979;SDS011;3530;52.832;10.680;2022-07-23T10:13:31;2.60;;;1.35;;
6979;SDS011;3530;52.832;10.680;2022-07-23T10:16:15;2.15;;;1.25;;
6979;SDS011;3530;52.832;10.680;2022-07-23T10:18:41;3.05;;;1.45;;
6979;SDS011;3530;52.832;10.680;2022-07-23T10:21:07;1.20;;;1.20;;
6979;SDS011;3530;52.832;10.680;2022-07-23T10:23:35;1.95;;;1.33;;
6979;SDS011;3530;52.832;10.680;2022-07-23T10:26:06;2.17;;;1.48;;
6979;SDS011;3530;52.832;10.680;2022-07-23T10:40:11;2.53;;;1.50;;
6979;SDS011;3530;52.832;10.680;2022-07-23T10:42:37;1.30;;;1.30;;
6979;SDS011;3530;52.832;10.680;2022-07-23T10:45:21;1.40;;;1.30;;
6979;SDS011;3530;52.832;10.680;2022-07-23T10:48:11;1.20;;;1.20;;
6979;SDS011;3530;52.832;10.680;2022-07-23T10:50:38;1.30;;;1.30;;
6979;SDS011;3530;52.832;10.680;2022-07-23T10:53:08;1.20;;;1.20;;
6979;SDS011;3530;52.832;10.680;2022-07-23T10:58:04;1.40;;;1.30;;
6979;SDS011;3530;52.832;10.680;2022-07-23T11:00:31;1.30;;;1.25;;
6979;SDS011;3530;52.832;10.680;2022-07-23T11:02:59;1.20;;;1.10;;
6979;SDS011;3530;52.832;10.680;2022-07-23T11:05:30;1.30;;;1.30;;
6979;SDS011;3530;52.832;10.680;2022-07-23T11:10:33;1.95;;;1.35;;
6979;SDS011;3530;52.832;10.680;2022-07-23T11:13:46;1.20;;;1.10;;
6979;SDS011;3530;52.832;10.680;2022-07-23T11:32:00;1.88;;;1.27;;
6979;SDS011;3530;52.832;10.680;2022-07-23T11:34:33;1.27;;;1.10;;
6979;SDS011;3530;52.832;10.680;2022-07-23T11:37:10;1.30;;;1.25;;
6979;SDS011;3530;52.832;10.680;2022-07-23T11:39:36;4.18;;;1.60;;
6979;SDS011;3530;52.832;10.680;2022-07-23T11:42:03;1.25;;;1.25;;
6979;SDS011;3530;52.832;10.680;2022-07-23T11:44:38;1.42;;;1.33;;
6979;SDS011;3530;52.832;10.680;2022-07-23T11:47:08;1.23;;;1.20;;
6979;SDS011;3530;52.832;10.680;2022-07-23T11:49:34;1.00;;;1.00;;
6979;SDS011;3530;52.832;10.680;2022-07-23T11:52:06;1.65;;;1.30;;
6979;SDS011;3530;52.832;10.680;2022-07-23T11:54:33;1.45;;;1.00;;
6979;SDS011;3530;52.832;10.680;2022-07-23T11:56:59;1.13;;;1.13;;
6979;SDS011;3530;52.832;10.680;2022-07-23T11:59:26;1.25;;;1.13;;
6979;SDS011;3530;52.832;10.680;2022-07-23T12:01:58;1.30;;;1.20;;
6979;SDS011;3530;52.832;10.680;2022-07-23T12:04:45;1.00;;;1.00;;
6979;SDS011;3530;52.832;10.680;2022-07-23T12:09:58;1.33;;;1.20;;
6979;SDS011;3530;52.832;10.680;2022-07-23T12:12:25;1.63;;;1.20;;
6979;SDS011;3530;52.832;10.680;2022-07-23T12:14:56;1.45;;;1.33;;
6979;SDS011;3530;52.832;10.680;2022-07-23T12:17:29;1.20;;;1.20;;
6979;SDS011;3530;52.832;10.680;2022-07-23T12:19:56;1.30;;;1.30;;
6979;SDS011;3530;52.832;10.680;2022-07-23T12:22:23;1.40;;;1.30;;
6979;SDS011;3530;52.832;10.680;2022-07-23T12:24:57;2.72;;;1.20;;
6979;SDS011;3530;52.832;10.680;2022-07-23T12:27:28;1.30;;;1.20;;
6979;SDS011;3530;52.832;10.680;2022-07-23T12:29:55;1.33;;;1.23;;
6979;SDS011;3530;52.832;10.680;2022-07-23T12:32:24;1.25;;;1.15;;
6979;SDS011;3530;52.832;10.680;2022-07-23T12:35:01;1.67;;;1.25;;
6979;SDS011;3530;52.832;10.680;2022-07-23T12:37:32;2.30;;;1.38;;
6979;SDS011;3530;52.832;10.680;2022-07-23T12:43:18;1.48;;;1.23;;
6979;SDS011;3530;52.832;10.680;2022-07-23T12:46:08;1.65;;;1.20;;
6979;SDS011;3530;52.832;10.680;2022-07-23T12:48:34;1.52;;;1.50;;
6979;SDS011;3530;52.832;10.680;2022-07-23T12:51:20;1.30;;;1.30;;
6979;SDS011;3530;52.832;10.680;2022-07-23T12:53:50;1.10;;;1.10;;
6979;SDS011;3530;52.832;10.680;2022-07-23T12:56:22;2.00;;;1.13;;
6979;SDS011;3530;52.832;10.680;2022-07-23T12:58:56;1.08;;;1.08;;
6979;SDS011;3530;52.832;10.680;2022-07-23T13:01:24;1.10;;;1.10;;
6979;SDS011;3530;52.832;10.680;2022-07-23T13:03:57;1.00;;;1.00;;
6979;SDS011;3530;52.832;10.680;2022-07-23T13:06:40;1.20;;;1.20;;
6979;SDS011;3530;52.832;10.680;2022-07-23T13:09:12;1.25;;;1.25;;
6979;SDS011;3530;52.832;10.680;2022-07-23T13:11:39;2.47;;;1.40;;
6979;SDS011;3530;52.832;10.680;2022-07-23T13:14:06;1.65;;;1.55;;
6979;SDS011;3530;52.832;10.680;2022-07-23T13:16:32;1.52;;;1.42;;
6979;SDS011;3530;52.832;10.680;2022-07-23T13:18:58;1.10;;;1.10;;
6979;SDS011;3530;52.832;10.680;2022-07-23T13:21:24;2.00;;;1.40;;
6979;SDS011;3530;52.832;10.680;2022-07-23T13:23:50;1.35;;;1.35;;
6979;SDS011;3530;52.832;10.680;2022-07-23T13:26:16;1.05;;;1.05;;
6979;SDS011;3530;52.832;10.680;2022-07-23T13:28:41;1.58;;;1.48;;
6979;SDS011;3530;52.832;10.680;2022-07-23T13:31:07;1.50;;;1.40;;
6979;SDS011;3530;52.832;10.680;2022-07-23T13:33:33;1.27;;;1.23;;
6979;SDS011;3530;52.832;10.680;2022-07-23T13:35:58;1.52;;;1.00;;
6979;SDS011;3530;52.832;10.680;2022-07-23T13:38:23;1.10;;;1.10;;
6979;SDS011;3530;52.832;10.680;2022-07-23T13:40:49;1.15;;;1.08;;
6979;SDS011;3530;52.832;10.680;2022-07-23T13:43:16;1.30;;;1.20;;
6979;SDS011;3530;52.832;10.680;2022-07-23T13:45:44;1.05;;;1.05;;
6979;SDS011;3530;52.832;10.680;2022-07-23T13:48:10;1.55;;;1.00;;
6979;SDS011;3530;52.832;10.680;2022-07-23T13:50:37;1.08;;;1.08;;
6979;SDS011;3530;52.832;10.680;2022-07-23T13:53:03;1.30;;;1.20;;
6979;SDS011;3530;52.832;10.680;2022-07-23T13:55:30;1.55;;;1.00;;
6979;SDS011;3530;52.832;10.680;2022-07-23T13:57:56;1.00;;;1.00;;
6979;SDS011;3530;52.832;10.680;2022-07-23T14:00:22;2.25;;;1.13;;
6979;SDS011;3530;52.832;10.680;2022-07-23T14:02:48;1.65;;;1.20;;
6979;SDS011;3530;52.832;10.680;2022-07-23T14:05:13;0.80;;;0.80;;
6979;SDS011;3530;52.832;10.680;2022-07-23T14:07:39;0.90;;;0.90;;
6979;SDS011;3530;52.832;10.680;2022-07-23T14:10:05;1.13;;;1.10;;
6979;SDS011;3530;52.832;10.680;2022-07-23T14:12:31;1.10;;;1.10;;
6979;SDS011;3530;52.832;10.680;2022-07-23T14:14:57;0.90;;;0.90;;
6979;SDS011;3530;52.832;10.680;2022-07-23T14:17:22;1.40;;;1.08;;
6979;SDS011;3530;52.832;10.680;2022-07-23T14:19:48;2.20;;;0.98;;
6979;SDS011;3530;52.832;10.680;2022-07-23T14:22:13;0.80;;;0.80;;
6979;SDS011;3530;52.832;10.680;2022-07-23T14:24:39;0.75;;;0.75;;
6979;SDS011;3530;52.832;10.680;2022-07-23T14:27:04;0.88;;;0.80;;
6979;SDS011;3530;52.832;10.680;2022-07-23T14:29:30;0.75;;;0.75;;
6979;SDS011;3530;52.832;10.680;2022-07-23T14:31:56;0.80;;;0.80;;
6979;SDS011;3530;52.832;10.680;2022-07-23T14:34:21;0.80;;;0.80;;
6979;SDS011;3530;52.832;10.680;2022-07-23T14:36:47;0.90;;;0.90;;
6979;SDS011;3530;52.832;10.680;2022-07-23T14:39:12;0.85;;;0.80;;
6979;SDS011;3530;52.832;10.680;2022-07-23T14:41:38;0.90;;;0.90;;
6979;SDS011;3530;52.832;10.680;2022-07-23T14:44:03;2.78;;;0.80;;
6979;SDS011;3530;52.832;10.680;2022-07-23T14:46:29;0.90;;;0.90;;
6979;SDS011;3530;52.832;10.680;2022-07-23T14:48:54;1.00;;;1.00;;
6979;SDS011;3530;52.832;10.680;2022-07-23T14:51:20;0.77;;;0.77;;
6979;SDS011;3530;52.832;10.680;2022-07-23T14:53:45;0.70;;;0.70;;
6979;SDS011;3530;52.832;10.680;2022-07-23T14:56:11;0.80;;;0.80;;
6979;SDS011;3530;52.832;10.680;2022-07-23T14:58:38;0.85;;;0.85;;
6979;SDS011;3530;52.832;10.680;2022-07-23T15:01:03;2.17;;;1.35;;
6979;SDS011;3530;52.832;10.680;2022-07-23T15:03:29;1.77;;;0.85;;
6979;SDS011;3530;52.832;10.680;2022-07-23T15:05:54;16.35;;;5.45;;
6979;SDS011;3530;52.832;10.680;2022-07-23T15:08:19;13.18;;;2.90;;
6979;SDS011;3530;52.832;10.680;2022-07-23T15:10:45;7.22;;;2.70;;
6979;SDS011;3530;52.832;10.680;2022-07-23T15:13:10;3.40;;;1.90;;
6979;SDS011;3530;52.832;10.680;2022-07-23T15:15:36;1.33;;;1.13;;
6979;SDS011;3530;52.832;10.680;2022-07-23T15:18:01;2.00;;;1.17;;
6979;SDS011;3530;52.832;10.680;2022-07-23T15:20:26;4.38;;;1.50;;
6979;SDS011;3530;52.832;10.680;2022-07-23T15:22:52;1.58;;;1.23;;
6979;SDS011;3530;52.832;10.680;2022-07-23T15:25:17;1.02;;;1.02;;
6979;SDS011;3530;52.832;10.680;2022-07-23T15:27:42;1.00;;;1.00;;
6979;SDS011;3530;52.832;10.680;2022-07-23T15:30:08;1.00;;;0.90;;
6979;SDS011;3530;52.832;10.680;2022-07-23T15:32:34;1.08;;;0.98;;
6979;SDS011;3530;52.832;10.680;2022-07-23T15:34:59;0.80;;;0.80;;
6979;SDS011;3530;52.832;10.680;2022-07-23T15:37:25;0.75;;;0.75;;
6979;SDS011;3530;52.832;10.680;2022-07-23T15:39:50;0.57;;;0.55;;
6979;SDS011;3530;52.832;10.680;2022-07-23T15:42:16;0.90;;;0.90;;
6979;SDS011;3530;52.832;10.680;2022-07-23T15:44:42;1.48;;;0.75;;
6979;SDS011;3530;52.832;10.680;2022-07-23T15:47:10;0.85;;;0.85;;